sensor_id;sensor_type;location;lat;lon;timestamp;temperature;humidity
3566;DHT22;1797;51.844;7.684;2023-06-10T00:01:32;19.80;1.00
3566;DHT22;1797;51.844;7.684;2023-06-10T00:04:02;19.80;1.00
3566;DHT22;1797;51.844;7.684;2023-06-10T00:06:28;19.70;1.00
3566;DHT22;1797;51.844;7.684;2023-06-10T00:09:01;19.70;1.00
3566;DHT22;1797;51.844;7.684;2023-06-10T00:11:26;19.70;1.00
3566;DHT22;1797;51.844;7.684;2023-06-10T00:13:52;19.70;1.00
3566;DHT22;1797;51.844;7.684;2023-06-10T00:16:18;19.60;1.00
3566;DHT22;1797;51.844;7.684;2023-06-10T00:18:44;19.60;1.00
3566;DHT22;1797;51.844;7.684;2023-06-10T00:21:09;19.50;1.00
3566;DHT22;1797;51.844;7.684;2023-06-10T00:23:35;19.50;1.00
3566;DHT22;1797;51.844;7.684;2023-06-10T00:26:03;19.40;1.00
3566;DHT22;1797;51.844;7.684;2023-06-10T00:28:30;19.30;1.00
3566;DHT22;1797;51.844;7.684;2023-06-10T00:30:55;19.30;1.00
3566;DHT22;1797;51.844;7.684;2023-06-10T00:33:22;19.20;1.00
3566;DHT22;1797;51.844;7.684;2023-06-10T00:35:48;19.20;1.00
3566;DHT22;1797;51.844;7.684;2023-06-10T00:38:14;19.20;1.00
3566;DHT22;1797;51.844;7.684;2023-06-10T00:40:42;19.10;1.00
3566;DHT22;1797;51.844;7.684;2023-06-10T00:43:08;19.10;1.00
3566;DHT22;1797;51.844;7.684;2023-06-10T00:45:34;19.10;1.00
3566;DHT22;1797;51.844;7.684;2023-06-10T00:48:01;19.00;1.00
3566;DHT22;1797;51.844;7.684;2023-06-10T00:50:27;19.00;1.00
3566;DHT22;1797;51.844;7.684;2023-06-10T00:52:54;19.00;1.00
3566;DHT22;1797;51.844;7.684;2023-06-10T00:55:20;18.90;1.00
3566;DHT22;1797;51.844;7.684;2023-06-10T00:57:46;18.90;1.00
3566;DHT22;1797;51.844;7.684;2023-06-10T01:00:14;18.80;1.00
3566;DHT22;1797;51.844;7.684;2023-06-10T01:02:41;18.70;1.00
3566;DHT22;1797;51.844;7.684;2023-06-10T01:05:07;18.80;1.00
3566;DHT22;1797;51.844;7.684;2023-06-10T01:07:50;18.70;1.00
3566;DHT22;1797;51.844;7.684;2023-06-10T01:10:33;18.70;1.00
3566;DHT22;1797;51.844;7.684;2023-06-10T01:13:01;18.70;1.00
3566;DHT22;1797;51.844;7.684;2023-06-10T01:15:32;18.60;1.00
3566;DHT22;1797;51.844;7.684;2023-06-10T01:18:00;18.60;1.00
3566;DHT22;1797;51.844;7.684;2023-06-10T01:20:28;18.60;1.00
3566;DHT22;1797;51.844;7.684;2023-06-10T01:22:57;18.50;1.00
3566;DHT22;1797;51.844;7.684;2023-06-10T01:25:24;18.50;1.00
3566;DHT22;1797;51.844;7.684;2023-06-10T01:30:48;18.40;1.00
3566;DHT22;1797;51.844;7.684;2023-06-10T01:33:18;18.30;1.00
3566;DHT22;1797;51.844;7.684;2023-06-10T01:35:47;18.30;1.00
3566;DHT22;1797;51.844;7.684;2023-06-10T01:38:14;18.30;1.00
3566;DHT22;1797;51.844;7.684;2023-06-10T01:40:40;18.20;1.00
3566;DHT22;1797;51.844;7.684;2023-06-10T01:43:06;18.20;1.00
3566;DHT22;1797;51.844;7.684;2023-06-10T01:45:32;18.10;1.00
3566;DHT22;1797;51.844;7.684;2023-06-10T01:47:57;18.10;1.00
3566;DHT22;1797;51.844;7.684;2023-06-10T01:50:23;18.00;1.00
3566;DHT22;1797;51.844;7.684;2023-06-10T01:52:48;17.90;1.00
3566;DHT22;1797;51.844;7.684;2023-06-10T01:55:14;17.90;1.00
3566;DHT22;1797;51.844;7.684;2023-06-10T01:57:39;17.90;1.00
3566;DHT22;1797;51.844;7.684;2023-06-10T02:00:06;17.90;21.40
3566;DHT22;1797;51.844;7.684;2023-06-10T02:02:31;17.80;24.80
3566;DHT22;1797;51.844;7.684;2023-06-10T02:04:57;17.90;1.00
3566;DHT22;1797;51.844;7.684;2023-06-10T02:07:23;17.90;19.20
3566;DHT22;1797;51.844;7.684;2023-06-10T02:09:48;17.90;9.50
3566;DHT22;1797;51.844;7.684;2023-06-10T02:12:14;17.90;20.90
3566;DHT22;1797;51.844;7.684;2023-06-10T02:14:39;17.80;58.80
3566;DHT22;1797;51.844;7.684;2023-06-10T02:17:05;17.80;80.50
3566;DHT22;1797;51.844;7.684;2023-06-10T02:19:31;17.70;99.90
3566;DHT22;1797;51.844;7.684;2023-06-10T02:21:56;17.70;99.90
3566;DHT22;1797;51.844;7.684;2023-06-10T02:24:22;17.60;99.90
3566;DHT22;1797;51.844;7.684;2023-06-10T02:26:47;17.60;94.40
3566;DHT22;1797;51.844;7.684;2023-06-10T02:29:13;17.50;98.80
3566;DHT22;1797;51.844;7.684;2023-06-10T02:31:39;17.50;99.90
3566;DHT22;1797;51.844;7.684;2023-06-10T02:34:05;17.40;99.90
3566;DHT22;1797;51.844;7.684;2023-06-10T02:36:30;17.30;99.90
3566;DHT22;1797;51.844;7.684;2023-06-10T02:38:56;17.30;99.90
3566;DHT22;1797;51.844;7.684;2023-06-10T02:41:22;17.30;99.90
3566;DHT22;1797;51.844;7.684;2023-06-10T02:43:48;17.30;99.90
3566;DHT22;1797;51.844;7.684;2023-06-10T02:46:14;17.20;99.90
3566;DHT22;1797;51.844;7.684;2023-06-10T02:48:45;17.10;99.90
3566;DHT22;1797;51.844;7.684;2023-06-10T02:51:12;17.10;99.90
3566;DHT22;1797;51.844;7.684;2023-06-10T02:53:37;17.00;99.90
3566;DHT22;1797;51.844;7.684;2023-06-10T02:56:03;17.00;99.90
3566;DHT22;1797;51.844;7.684;2023-06-10T02:58:29;17.00;99.90
3566;DHT22;1797;51.844;7.684;2023-06-10T03:00:54;16.90;99.90
3566;DHT22;1797;51.844;7.684;2023-06-10T03:03:20;17.00;99.90
3566;DHT22;1797;51.844;7.684;2023-06-10T03:05:48;16.90;99.90
3566;DHT22;1797;51.844;7.684;2023-06-10T03:08:13;16.90;99.90
3566;DHT22;1797;51.844;7.684;2023-06-10T03:10:39;16.90;99.90
3566;DHT22;1797;51.844;7.684;2023-06-10T03:13:05;16.90;99.90
3566;DHT22;1797;51.844;7.684;2023-06-10T03:15:30;16.90;99.90
3566;DHT22;1797;51.844;7.684;2023-06-10T03:18:01;16.90;99.90
3566;DHT22;1797;51.844;7.684;2023-06-10T03:20:27;16.90;99.90
3566;DHT22;1797;51.844;7.684;2023-06-10T03:22:54;16.90;99.90
3566;DHT22;1797;51.844;7.684;2023-06-10T03:25:20;16.80;99.90
3566;DHT22;1797;51.844;7.684;2023-06-10T03:27:46;16.80;99.90
3566;DHT22;1797;51.844;7.684;2023-06-10T03:30:13;16.80;99.90
3566;DHT22;1797;51.844;7.684;2023-06-10T03:32:39;16.80;99.90
3566;DHT22;1797;51.844;7.684;2023-06-10T03:35:06;16.80;99.90
3566;DHT22;1797;51.844;7.684;2023-06-10T03:37:32;16.80;99.90
3566;DHT22;1797;51.844;7.684;2023-06-10T03:39:58;16.80;99.90
3566;DHT22;1797;51.844;7.684;2023-06-10T03:42:23;16.80;99.90
3566;DHT22;1797;51.844;7.684;2023-06-10T03:44:49;16.70;99.90
3566;DHT22;1797;51.844;7.684;2023-06-10T03:47:14;16.70;99.90
3566;DHT22;1797;51.844;7.684;2023-06-10T03:49:41;16.80;99.90
3566;DHT22;1797;51.844;7.684;2023-06-10T03:52:07;16.80;99.90
3566;DHT22;1797;51.844;7.684;2023-06-10T03:54:32;16.80;99.90
3566;DHT22;1797;51.844;7.684;2023-06-10T03:57:00;16.90;99.90
3566;DHT22;1797;51.844;7.684;2023-06-10T03:59:26;16.90;99.90
3566;DHT22;1797;51.844;7.684;2023-06-10T04:01:51;16.90;99.90
3566;DHT22;1797;51.844;7.684;2023-06-10T04:04:17;16.90;99.90
3566;DHT22;1797;51.844;7.684;2023-06-10T04:06:43;16.90;99.90
3566;DHT22;1797;51.844;7.684;2023-06-10T04:09:11;16.90;99.90
3566;DHT22;1797;51.844;7.684;2023-06-10T04:11:38;16.90;99.90
3566;DHT22;1797;51.844;7.684;2023-06-10T04:14:03;16.90;99.90
3566;DHT22;1797;51.844;7.684;2023-06-10T04:16:29;16.90;99.90
3566;DHT22;1797;51.844;7.684;2023-06-10T04:18:54;16.90;99.90
3566;DHT22;1797;51.844;7.684;2023-06-10T04:21:21;17.00;99.90
3566;DHT22;1797;51.844;7.684;2023-06-10T04:23:47;16.90;99.90
3566;DHT22;1797;51.844;7.684;2023-06-10T04:26:12;17.00;99.90
3566;DHT22;1797;51.844;7.684;2023-06-10T04:28:38;17.00;99.90
3566;DHT22;1797;51.844;7.684;2023-06-10T04:31:04;17.00;99.90
3566;DHT22;1797;51.844;7.684;2023-06-10T04:33:30;17.10;99.90
3566;DHT22;1797;51.844;7.684;2023-06-10T04:35:56;17.10;99.90
3566;DHT22;1797;51.844;7.684;2023-06-10T04:38:21;17.10;99.90
3566;DHT22;1797;51.844;7.684;2023-06-10T04:40:47;17.10;99.90
3566;DHT22;1797;51.844;7.684;2023-06-10T04:43:13;17.10;99.90
3566;DHT22;1797;51.844;7.684;2023-06-10T04:45:39;17.10;99.90
3566;DHT22;1797;51.844;7.684;2023-06-10T04:48:05;17.10;99.90
3566;DHT22;1797;51.844;7.684;2023-06-10T04:50:30;17.20;99.90
3566;DHT22;1797;51.844;7.684;2023-06-10T04:52:58;17.20;99.90
3566;DHT22;1797;51.844;7.684;2023-06-10T04:55:24;17.20;99.90
3566;DHT22;1797;51.844;7.684;2023-06-10T04:57:50;17.20;99.90
3566;DHT22;1797;51.844;7.684;2023-06-10T05:00:16;17.30;99.90
3566;DHT22;1797;51.844;7.684;2023-06-10T05:02:42;17.30;99.90
3566;DHT22;1797;51.844;7.684;2023-06-10T05:05:08;17.40;99.90
3566;DHT22;1797;51.844;7.684;2023-06-10T05:07:33;17.50;99.90
3566;DHT22;1797;51.844;7.684;2023-06-10T05:09:59;17.50;99.90
3566;DHT22;1797;51.844;7.684;2023-06-10T05:12:25;17.50;99.90
3566;DHT22;1797;51.844;7.684;2023-06-10T05:14:51;17.60;99.90
3566;DHT22;1797;51.844;7.684;2023-06-10T05:17:17;17.60;99.90
3566;DHT22;1797;51.844;7.684;2023-06-10T05:19:43;17.70;99.90
3566;DHT22;1797;51.844;7.684;2023-06-10T05:22:09;17.70;99.90
3566;DHT22;1797;51.844;7.684;2023-06-10T05:24:34;17.80;99.90
3566;DHT22;1797;51.844;7.684;2023-06-10T05:27:00;17.80;99.90
3566;DHT22;1797;51.844;7.684;2023-06-10T05:29:25;17.90;98.90
3566;DHT22;1797;51.844;7.684;2023-06-10T05:31:51;17.90;52.00
3566;DHT22;1797;51.844;7.684;2023-06-10T05:34:17;18.00;76.60
3566;DHT22;1797;51.844;7.684;2023-06-10T05:36:43;18.10;82.70
3566;DHT22;1797;51.844;7.684;2023-06-10T05:39:09;18.10;27.20
3566;DHT22;1797;51.844;7.684;2023-06-10T05:41:35;18.20;20.20
3566;DHT22;1797;51.844;7.684;2023-06-10T05:44:02;18.20;1.00
3566;DHT22;1797;51.844;7.684;2023-06-10T05:46:27;18.40;1.00
3566;DHT22;1797;51.844;7.684;2023-06-10T05:48:53;18.40;1.00
3566;DHT22;1797;51.844;7.684;2023-06-10T05:51:19;18.50;1.00
3566;DHT22;1797;51.844;7.684;2023-06-10T05:53:44;18.80;1.00
3566;DHT22;1797;51.844;7.684;2023-06-10T05:56:12;18.80;1.00
3566;DHT22;1797;51.844;7.684;2023-06-10T05:58:38;18.90;1.00
3566;DHT22;1797;51.844;7.684;2023-06-10T06:01:03;19.10;1.00
3566;DHT22;1797;51.844;7.684;2023-06-10T06:03:29;19.20;1.00
3566;DHT22;1797;51.844;7.684;2023-06-10T06:05:55;19.40;1.00
3566;DHT22;1797;51.844;7.684;2023-06-10T06:08:20;19.60;1.00
3566;DHT22;1797;51.844;7.684;2023-06-10T06:10:46;19.70;1.00
3566;DHT22;1797;51.844;7.684;2023-06-10T06:13:13;19.90;1.00
3566;DHT22;1797;51.844;7.684;2023-06-10T06:15:38;20.10;1.00
3566;DHT22;1797;51.844;7.684;2023-06-10T06:18:04;20.20;1.00
3566;DHT22;1797;51.844;7.684;2023-06-10T06:20:30;20.30;1.00
3566;DHT22;1797;51.844;7.684;2023-06-10T06:22:55;20.40;1.00
3566;DHT22;1797;51.844;7.684;2023-06-10T06:25:21;20.50;1.00
3566;DHT22;1797;51.844;7.684;2023-06-10T06:27:46;20.70;1.00
3566;DHT22;1797;51.844;7.684;2023-06-10T06:30:12;20.80;1.00
3566;DHT22;1797;51.844;7.684;2023-06-10T06:32:38;20.90;1.00
3566;DHT22;1797;51.844;7.684;2023-06-10T06:35:03;21.00;1.00
3566;DHT22;1797;51.844;7.684;2023-06-10T06:37:31;21.20;1.00
3566;DHT22;1797;51.844;7.684;2023-06-10T06:39:57;21.20;1.00
3566;DHT22;1797;51.844;7.684;2023-06-10T06:42:23;21.50;1.00
3566;DHT22;1797;51.844;7.684;2023-06-10T06:44:49;21.60;1.00
3566;DHT22;1797;51.844;7.684;2023-06-10T06:47:14;21.70;1.00
3566;DHT22;1797;51.844;7.684;2023-06-10T06:49:40;21.80;1.00
3566;DHT22;1797;51.844;7.684;2023-06-10T06:52:06;22.00;1.00
3566;DHT22;1797;51.844;7.684;2023-06-10T06:54:31;21.90;1.00
3566;DHT22;1797;51.844;7.684;2023-06-10T06:56:57;22.00;1.00
3566;DHT22;1797;51.844;7.684;2023-06-10T06:59:23;22.10;1.00
3566;DHT22;1797;51.844;7.684;2023-06-10T07:01:49;22.30;1.00
3566;DHT22;1797;51.844;7.684;2023-06-10T07:04:15;22.40;1.00
3566;DHT22;1797;51.844;7.684;2023-06-10T07:06:41;22.70;1.00
3566;DHT22;1797;51.844;7.684;2023-06-10T07:09:10;22.90;1.00
3566;DHT22;1797;51.844;7.684;2023-06-10T07:11:35;23.00;1.00
3566;DHT22;1797;51.844;7.684;2023-06-10T07:14:01;23.10;1.00
3566;DHT22;1797;51.844;7.684;2023-06-10T07:16:26;23.30;1.00
3566;DHT22;1797;51.844;7.684;2023-06-10T07:18:55;23.40;1.00
3566;DHT22;1797;51.844;7.684;2023-06-10T07:21:20;23.30;1.00
3566;DHT22;1797;51.844;7.684;2023-06-10T07:23:47;23.40;1.00
3566;DHT22;1797;51.844;7.684;2023-06-10T07:26:13;23.40;1.00
3566;DHT22;1797;51.844;7.684;2023-06-10T07:28:40;23.40;1.00
3566;DHT22;1797;51.844;7.684;2023-06-10T07:31:06;23.50;1.00
3566;DHT22;1797;51.844;7.684;2023-06-10T07:33:32;23.50;1.00
3566;DHT22;1797;51.844;7.684;2023-06-10T07:35:57;23.40;1.00
3566;DHT22;1797;51.844;7.684;2023-06-10T07:38:24;23.40;1.00
3566;DHT22;1797;51.844;7.684;2023-06-10T07:40:49;23.60;1.00
3566;DHT22;1797;51.844;7.684;2023-06-10T07:43:15;23.90;1.00
3566;DHT22;1797;51.844;7.684;2023-06-10T07:45:40;24.10;99.90
3566;DHT22;1797;51.844;7.684;2023-06-10T07:48:06;24.30;99.90
3566;DHT22;1797;51.844;7.684;2023-06-10T07:50:32;24.30;99.90
3566;DHT22;1797;51.844;7.684;2023-06-10T07:52:58;24.30;99.90
3566;DHT22;1797;51.844;7.684;2023-06-10T07:55:24;24.40;99.90
3566;DHT22;1797;51.844;7.684;2023-06-10T07:57:52;24.80;99.90
3566;DHT22;1797;51.844;7.684;2023-06-10T08:00:18;25.00;99.90
3566;DHT22;1797;51.844;7.684;2023-06-10T08:02:43;25.10;99.90
3566;DHT22;1797;51.844;7.684;2023-06-10T08:05:09;25.40;99.90
3566;DHT22;1797;51.844;7.684;2023-06-10T08:07:35;25.60;99.90
3566;DHT22;1797;51.844;7.684;2023-06-10T08:10:01;25.70;99.90
3566;DHT22;1797;51.844;7.684;2023-06-10T08:12:27;25.90;99.90
3566;DHT22;1797;51.844;7.684;2023-06-10T08:14:53;26.20;99.90
3566;DHT22;1797;51.844;7.684;2023-06-10T08:17:20;26.50;99.90
3566;DHT22;1797;51.844;7.684;2023-06-10T08:19:46;26.60;99.90
3566;DHT22;1797;51.844;7.684;2023-06-10T08:22:11;26.80;99.90
3566;DHT22;1797;51.844;7.684;2023-06-10T08:24:37;27.10;99.90
3566;DHT22;1797;51.844;7.684;2023-06-10T08:27:03;27.30;99.90
3566;DHT22;1797;51.844;7.684;2023-06-10T08:29:29;27.50;99.90
3566;DHT22;1797;51.844;7.684;2023-06-10T08:31:56;27.70;99.90
3566;DHT22;1797;51.844;7.684;2023-06-10T08:34:22;28.00;99.90
3566;DHT22;1797;51.844;7.684;2023-06-10T08:36:48;28.30;99.90
3566;DHT22;1797;51.844;7.684;2023-06-10T08:39:19;28.50;99.90
3566;DHT22;1797;51.844;7.684;2023-06-10T08:41:59;28.50;99.90
3566;DHT22;1797;51.844;7.684;2023-06-10T08:44:29;28.40;99.90
3566;DHT22;1797;51.844;7.684;2023-06-10T08:46:59;28.50;99.90
3566;DHT22;1797;51.844;7.684;2023-06-10T08:49:26;28.70;99.90
3566;DHT22;1797;51.844;7.684;2023-06-10T08:51:58;28.90;99.90
3566;DHT22;1797;51.844;7.684;2023-06-10T08:54:30;29.00;99.90
3566;DHT22;1797;51.844;7.684;2023-06-10T08:56:59;29.20;99.90
3566;DHT22;1797;51.844;7.684;2023-06-10T08:59:25;29.50;99.90
3566;DHT22;1797;51.844;7.684;2023-06-10T09:01:52;29.80;99.90
3566;DHT22;1797;51.844;7.684;2023-06-10T09:04:18;29.90;99.90
3566;DHT22;1797;51.844;7.684;2023-06-10T09:06:45;29.60;99.90
3566;DHT22;1797;51.844;7.684;2023-06-10T09:09:12;29.60;99.90
3566;DHT22;1797;51.844;7.684;2023-06-10T09:11:39;29.80;99.90
3566;DHT22;1797;51.844;7.684;2023-06-10T09:14:06;30.10;99.90
3566;DHT22;1797;51.844;7.684;2023-06-10T09:16:31;30.30;99.90
3566;DHT22;1797;51.844;7.684;2023-06-10T09:18:57;30.20;99.90
3566;DHT22;1797;51.844;7.684;2023-06-10T09:21:24;30.20;99.90
3566;DHT22;1797;51.844;7.684;2023-06-10T09:23:51;30.20;99.90
3566;DHT22;1797;51.844;7.684;2023-06-10T09:26:17;30.40;99.90
3566;DHT22;1797;51.844;7.684;2023-06-10T09:28:44;30.40;99.90
3566;DHT22;1797;51.844;7.684;2023-06-10T09:31:12;30.60;99.90
3566;DHT22;1797;51.844;7.684;2023-06-10T09:33:39;30.50;99.90
3566;DHT22;1797;51.844;7.684;2023-06-10T09:36:05;30.70;99.90
3566;DHT22;1797;51.844;7.684;2023-06-10T09:38:34;31.00;99.90
3566;DHT22;1797;51.844;7.684;2023-06-10T09:41:00;31.10;99.90
3566;DHT22;1797;51.844;7.684;2023-06-10T09:43:41;31.40;99.90
3566;DHT22;1797;51.844;7.684;2023-06-10T09:46:17;31.80;99.90
3566;DHT22;1797;51.844;7.684;2023-06-10T09:48:44;32.10;99.90
3566;DHT22;1797;51.844;7.684;2023-06-10T09:51:10;32.30;99.90
3566;DHT22;1797;51.844;7.684;2023-06-10T09:53:36;32.40;99.90
3566;DHT22;1797;51.844;7.684;2023-06-10T09:56:02;32.30;99.90
3566;DHT22;1797;51.844;7.684;2023-06-10T09:58:40;32.30;99.90
3566;DHT22;1797;51.844;7.684;2023-06-10T10:01:10;32.30;99.90
3566;DHT22;1797;51.844;7.684;2023-06-10T10:03:51;32.50;99.90
3566;DHT22;1797;51.844;7.684;2023-06-10T10:06:18;32.30;99.90
3566;DHT22;1797;51.844;7.684;2023-06-10T10:08:49;32.10;99.90
3566;DHT22;1797;51.844;7.684;2023-06-10T10:11:17;31.80;99.90
3566;DHT22;1797;51.844;7.684;2023-06-10T10:13:45;31.60;99.90
3566;DHT22;1797;51.844;7.684;2023-06-10T10:16:23;31.20;99.90
3566;DHT22;1797;51.844;7.684;2023-06-10T10:18:55;31.30;99.90
3566;DHT22;1797;51.844;7.684;2023-06-10T10:21:26;31.50;99.90
3566;DHT22;1797;51.844;7.684;2023-06-10T10:24:03;31.90;99.90
3566;DHT22;1797;51.844;7.684;2023-06-10T10:26:31;32.40;99.90
3566;DHT22;1797;51.844;7.684;2023-06-10T10:29:20;32.50;99.90
3566;DHT22;1797;51.844;7.684;2023-06-10T10:31:50;32.90;99.90
3566;DHT22;1797;51.844;7.684;2023-06-10T10:34:25;32.80;99.90
3566;DHT22;1797;51.844;7.684;2023-06-10T10:36:54;33.00;99.90
3566;DHT22;1797;51.844;7.684;2023-06-10T10:39:20;33.00;99.90
3566;DHT22;1797;51.844;7.684;2023-06-10T10:41:46;33.00;99.90
3566;DHT22;1797;51.844;7.684;2023-06-10T10:44:13;32.80;99.90
3566;DHT22;1797;51.844;7.684;2023-06-10T10:46:49;32.50;99.90
3566;DHT22;1797;51.844;7.684;2023-06-10T10:49:16;32.20;99.90
3566;DHT22;1797;51.844;7.684;2023-06-10T10:54:31;32.90;99.90
3566;DHT22;1797;51.844;7.684;2023-06-10T10:57:09;33.10;99.90
3566;DHT22;1797;51.844;7.684;2023-06-10T10:59:59;33.30;99.90
3566;DHT22;1797;51.844;7.684;2023-06-10T11:02:34;33.70;99.90
3566;DHT22;1797;51.844;7.684;2023-06-10T11:05:01;33.70;99.90
3566;DHT22;1797;51.844;7.684;2023-06-10T11:07:30;33.20;99.90
3566;DHT22;1797;51.844;7.684;2023-06-10T11:10:12;32.90;99.90
3566;DHT22;1797;51.844;7.684;2023-06-10T11:12:53;33.00;99.90
3566;DHT22;1797;51.844;7.684;2023-06-10T11:15:22;33.40;99.90
3566;DHT22;1797;51.844;7.684;2023-06-10T11:31:24;34.10;99.90
3566;DHT22;1797;51.844;7.684;2023-06-10T11:34:04;34.50;99.90
3566;DHT22;1797;51.844;7.684;2023-06-10T11:36:31;34.80;99.90
3566;DHT22;1797;51.844;7.684;2023-06-10T11:41:24;34.50;99.90
3566;DHT22;1797;51.844;7.684;2023-06-10T11:43:52;34.00;99.90
3566;DHT22;1797;51.844;7.684;2023-06-10T11:46:18;33.90;99.90
3566;DHT22;1797;51.844;7.684;2023-06-10T11:48:52;33.60;99.90
3566;DHT22;1797;51.844;7.684;2023-06-10T11:51:18;33.50;99.90
3566;DHT22;1797;51.844;7.684;2023-06-10T11:53:48;33.50;99.90
3566;DHT22;1797;51.844;7.684;2023-06-10T11:56:18;33.50;99.90
3566;DHT22;1797;51.844;7.684;2023-06-10T11:58:45;33.30;99.90
3566;DHT22;1797;51.844;7.684;2023-06-10T12:01:10;33.50;99.90
3566;DHT22;1797;51.844;7.684;2023-06-10T12:03:37;33.50;99.90
3566;DHT22;1797;51.844;7.684;2023-06-10T12:06:06;33.50;99.90
3566;DHT22;1797;51.844;7.684;2023-06-10T12:08:33;33.90;99.90
3566;DHT22;1797;51.844;7.684;2023-06-10T12:11:06;34.20;99.90
3566;DHT22;1797;51.844;7.684;2023-06-10T12:13:32;34.50;99.90
3566;DHT22;1797;51.844;7.684;2023-06-10T12:16:08;34.50;99.90
3566;DHT22;1797;51.844;7.684;2023-06-10T12:18:34;34.60;99.90
3566;DHT22;1797;51.844;7.684;2023-06-10T12:20:59;35.00;99.90
3566;DHT22;1797;51.844;7.684;2023-06-10T12:23:25;35.10;99.90
3566;DHT22;1797;51.844;7.684;2023-06-10T12:25:55;35.10;99.90
3566;DHT22;1797;51.844;7.684;2023-06-10T12:28:25;34.90;99.90
3566;DHT22;1797;51.844;7.684;2023-06-10T12:30:52;35.30;99.90
3566;DHT22;1797;51.844;7.684;2023-06-10T12:33:31;35.20;99.90
3566;DHT22;1797;51.844;7.684;2023-06-10T12:35:56;35.30;99.90
3566;DHT22;1797;51.844;7.684;2023-06-10T12:38:25;35.10;99.90
3566;DHT22;1797;51.844;7.684;2023-06-10T12:40:57;35.20;99.90
3566;DHT22;1797;51.844;7.684;2023-06-10T12:43:26;35.20;99.90
3566;DHT22;1797;51.844;7.684;2023-06-10T12:45:52;35.30;99.90
3566;DHT22;1797;51.844;7.684;2023-06-10T12:48:19;35.00;99.90
3566;DHT22;1797;51.844;7.684;2023-06-10T12:50:57;34.30;99.90
3566;DHT22;1797;51.844;7.684;2023-06-10T12:53:24;34.20;99.90
3566;DHT22;1797;51.844;7.684;2023-06-10T12:55:52;34.30;99.90
3566;DHT22;1797;51.844;7.684;2023-06-10T12:58:19;34.30;99.90
3566;DHT22;1797;51.844;7.684;2023-06-10T13:00:45;34.10;99.90
3566;DHT22;1797;51.844;7.684;2023-06-10T13:03:10;34.30;99.90
3566;DHT22;1797;51.844;7.684;2023-06-10T13:05:36;34.50;99.90
3566;DHT22;1797;51.844;7.684;2023-06-10T13:08:07;34.20;99.90
3566;DHT22;1797;51.844;7.684;2023-06-10T13:10:33;34.40;99.90
3566;DHT22;1797;51.844;7.684;2023-06-10T13:13:00;34.80;99.90
3566;DHT22;1797;51.844;7.684;2023-06-10T13:15:27;34.30;99.90
3566;DHT22;1797;51.844;7.684;2023-06-10T13:17:52;34.00;99.90
3566;DHT22;1797;51.844;7.684;2023-06-10T13:20:19;33.70;99.90
3566;DHT22;1797;51.844;7.684;2023-06-10T13:22:45;33.70;99.90
3566;DHT22;1797;51.844;7.684;2023-06-10T13:25:10;34.20;99.90
3566;DHT22;1797;51.844;7.684;2023-06-10T13:27:36;34.30;99.90
3566;DHT22;1797;51.844;7.684;2023-06-10T13:30:06;34.70;99.90
3566;DHT22;1797;51.844;7.684;2023-06-10T13:32:32;34.70;99.90
3566;DHT22;1797;51.844;7.684;2023-06-10T13:34:57;34.50;99.90
3566;DHT22;1797;51.844;7.684;2023-06-10T13:37:23;34.80;99.90
3566;DHT22;1797;51.844;7.684;2023-06-10T13:39:49;34.50;99.90
3566;DHT22;1797;51.844;7.684;2023-06-10T13:42:19;34.20;99.90
3566;DHT22;1797;51.844;7.684;2023-06-10T13:44:45;34.00;99.90
3566;DHT22;1797;51.844;7.684;2023-06-10T13:47:11;33.70;99.90
3566;DHT22;1797;51.844;7.684;2023-06-10T13:49:36;33.60;99.90
3566;DHT22;1797;51.844;7.684;2023-06-10T13:52:03;33.60;99.90
3566;DHT22;1797;51.844;7.684;2023-06-10T13:54:28;33.70;99.90
3566;DHT22;1797;51.844;7.684;2023-06-10T13:56:54;33.60;99.90
3566;DHT22;1797;51.844;7.684;2023-06-10T13:59:21;33.40;99.90
3566;DHT22;1797;51.844;7.684;2023-06-10T14:01:47;33.60;99.90
3566;DHT22;1797;51.844;7.684;2023-06-10T14:04:12;33.40;99.90
3566;DHT22;1797;51.844;7.684;2023-06-10T14:06:38;33.40;99.90
3566;DHT22;1797;51.844;7.684;2023-06-10T14:09:04;33.70;99.90
3566;DHT22;1797;51.844;7.684;2023-06-10T14:11:30;33.60;99.90
3566;DHT22;1797;51.844;7.684;2023-06-10T14:13:55;33.60;99.90
3566;DHT22;1797;51.844;7.684;2023-06-10T14:16:26;33.60;99.90
3566;DHT22;1797;51.844;7.684;2023-06-10T14:18:52;33.60;99.90
3566;DHT22;1797;51.844;7.684;2023-06-10T14:21:17;33.80;99.90
3566;DHT22;1797;51.844;7.684;2023-06-10T14:23:43;33.90;99.90
3566;DHT22;1797;51.844;7.684;2023-06-10T14:26:09;33.80;99.90
3566;DHT22;1797;51.844;7.684;2023-06-10T14:28:35;33.90;99.90
3566;DHT22;1797;51.844;7.684;2023-06-10T14:31:01;33.90;99.90
3566;DHT22;1797;51.844;7.684;2023-06-10T14:33:26;33.80;99.90
3566;DHT22;1797;51.844;7.684;2023-06-10T14:35:52;33.90;99.90
3566;DHT22;1797;51.844;7.684;2023-06-10T14:38:18;33.60;99.90
3566;DHT22;1797;51.844;7.684;2023-06-10T14:40:44;33.60;99.90
3566;DHT22;1797;51.844;7.684;2023-06-10T14:43:09;33.70;99.90
3566;DHT22;1797;51.844;7.684;2023-06-10T14:45:39;33.90;99.90
3566;DHT22;1797;51.844;7.684;2023-06-10T14:48:06;34.00;99.90
3566;DHT22;1797;51.844;7.684;2023-06-10T14:50:32;33.90;99.90
3566;DHT22;1797;51.844;7.684;2023-06-10T14:52:58;33.10;99.90
3566;DHT22;1797;51.844;7.684;2023-06-10T14:55:24;32.50;99.90
3566;DHT22;1797;51.844;7.684;2023-06-10T14:57:50;32.20;99.90
3566;DHT22;1797;51.844;7.684;2023-06-10T15:00:16;32.20;99.90
3566;DHT22;1797;51.844;7.684;2023-06-10T15:02:45;32.30;99.90
3566;DHT22;1797;51.844;7.684;2023-06-10T15:05:14;32.40;99.90
3566;DHT22;1797;51.844;7.684;2023-06-10T15:07:40;32.40;99.90
3566;DHT22;1797;51.844;7.684;2023-06-10T15:10:06;32.60;99.90
3566;DHT22;1797;51.844;7.684;2023-06-10T15:12:32;32.60;99.90
3566;DHT22;1797;51.844;7.684;2023-06-10T15:14:58;32.60;99.90
3566;DHT22;1797;51.844;7.684;2023-06-10T15:17:23;32.60;99.90
3566;DHT22;1797;51.844;7.684;2023-06-10T15:19:49;32.40;99.90
3566;DHT22;1797;51.844;7.684;2023-06-10T15:22:14;32.40;99.90
3566;DHT22;1797;51.844;7.684;2023-06-10T15:24:40;32.60;99.90
3566;DHT22;1797;51.844;7.684;2023-06-10T15:27:05;32.60;99.90
3566;DHT22;1797;51.844;7.684;2023-06-10T15:29:32;32.60;99.90
3566;DHT22;1797;51.844;7.684;2023-06-10T15:31:57;32.70;99.90
3566;DHT22;1797;51.844;7.684;2023-06-10T15:34:23;32.50;99.90
3566;DHT22;1797;51.844;7.684;2023-06-10T15:36:48;32.50;99.90
3566;DHT22;1797;51.844;7.684;2023-06-10T15:39:14;32.30;99.90
3566;DHT22;1797;51.844;7.684;2023-06-10T15:41:40;32.10;99.90
3566;DHT22;1797;51.844;7.684;2023-06-10T15:44:05;32.20;99.90
3566;DHT22;1797;51.844;7.684;2023-06-10T15:46:31;32.40;99.90
3566;DHT22;1797;51.844;7.684;2023-06-10T15:48:57;32.50;99.90
3566;DHT22;1797;51.844;7.684;2023-06-10T15:51:23;32.50;99.90
3566;DHT22;1797;51.844;7.684;2023-06-10T15:53:49;32.40;99.90
3566;DHT22;1797;51.844;7.684;2023-06-10T15:56:15;32.30;99.90
3566;DHT22;1797;51.844;7.684;2023-06-10T15:58:41;32.40;99.90
3566;DHT22;1797;51.844;7.684;2023-06-10T16:01:06;32.40;99.90
3566;DHT22;1797;51.844;7.684;2023-06-10T16:03:34;32.40;99.90
3566;DHT22;1797;51.844;7.684;2023-06-10T16:06:00;32.30;99.90
3566;DHT22;1797;51.844;7.684;2023-06-10T16:08:26;32.10;99.90
3566;DHT22;1797;51.844;7.684;2023-06-10T16:10:51;32.00;99.90
3566;DHT22;1797;51.844;7.684;2023-06-10T16:13:17;31.80;99.90
3566;DHT22;1797;51.844;7.684;2023-06-10T16:15:42;31.80;99.90
3566;DHT22;1797;51.844;7.684;2023-06-10T16:18:08;31.90;99.90
3566;DHT22;1797;51.844;7.684;2023-06-10T16:20:34;32.00;99.90
3566;DHT22;1797;51.844;7.684;2023-06-10T16:23:03;31.90;99.90
3566;DHT22;1797;51.844;7.684;2023-06-10T16:25:28;31.90;99.90